Time;durP1;ratioP1;P1;durP2;ratioP2;P2;SDS_P1;SDS_P2;PMS_P1;PMS_P2;Temp;Humidity;BMP_temperature;BMP_pressure;BME280_temperature;BME280_humidity;BME280_pressure;Samples;Min_cycle;Max_cycle;Signal;HPM_P1;HPM_P2
2023/09/29 00:01:27;;;;;;;23.73;7.38;;;;;;;;;;5054192;28;20470;-74
2023/09/29 00:03:54;;;;;;;19.33;7.20;;;;;;;;;;5054755;28;20040;-76
2023/09/29 00:06:20;;;;;;;18.83;7.22;;;;;;;;;;5054684;28;20049;-74
2023/09/29 00:08:46;;;;;;;20.88;6.70;;;;;;;;;;5053858;28;20033;-75
2023/09/29 00:11:14;;;;;;;18.48;7.25;;;;;;;;;;5054414;28;20044;-75
2023/09/29 00:13:40;;;;;;;21.42;7.10;;;;;;;;;;5053055;28;20561;-74
2023/09/29 00:16:06;;;;;;;17.55;6.50;;;;;;;;;;5054335;28;20495;-74
2023/09/29 00:18:33;;;;;;;19.23;7.00;;;;;;;;;;5053736;28;20037;-74
2023/09/29 00:20:59;;;;;;;18.00;6.57;;;;;;;;;;5053309;28;20049;-75
2023/09/29 00:23:25;;;;;;;19.55;7.13;;;;;;;;;;5052874;28;20041;-75
2023/09/29 00:25:51;;;;;;;21.33;7.60;;;;;;;;;;5053898;28;20557;-75
2023/09/29 00:28:17;;;;;;;18.52;6.63;;;;;;;;;;5052672;28;20049;-75
2023/09/29 00:30:44;;;;;;;20.83;7.57;;;;;;;;;;5052852;28;20045;-75
2023/09/29 00:33:10;;;;;;;20.17;7.40;;;;;;;;;;5053046;28;20053;-75
2023/09/29 00:35:37;;;;;;;19.50;6.53;;;;;;;;;;5052417;28;20091;-75
2023/09/29 00:38:03;;;;;;;20.33;7.32;;;;;;;;;;5051745;28;20061;-75
2023/09/29 00:40:30;;;;;;;21.38;7.97;;;;;;;;;;5053297;28;20037;-75
2023/09/29 00:42:59;;;;;;;18.40;6.90;;;;;;;;;;5052080;28;20045;-74
2023/09/29 00:45:26;;;;;;;20.40;7.20;;;;;;;;;;5048527;28;20048;-75
2023/09/29 00:48:04;;;;;;;20.40;7.55;;;;;;;;;;5050936;28;20037;-75
2023/09/29 00:50:30;;;;;;;22.73;7.30;;;;;;;;;;5052251;28;20424;-75
2023/09/29 00:53:06;;;;;;;18.08;7.28;;;;;;;;;;5050503;28;20571;-75
2023/09/29 00:55:33;;;;;;;21.33;7.57;;;;;;;;;;5050722;28;20116;-75
2023/09/29 00:57:59;;;;;;;24.08;7.93;;;;;;;;;;5051799;28;20048;-75
2023/09/29 01:02:58;;;;;;;22.42;7.00;;;;;;;;;;5051518;28;20059;-74
2023/09/29 01:05:25;;;;;;;19.02;7.47;;;;;;;;;;5047057;28;20056;-74
2023/09/29 01:07:51;;;;;;;18.50;7.97;;;;;;;;;;5052641;28;20436;-74
2023/09/29 01:10:18;;;;;;;20.45;7.55;;;;;;;;;;5053524;28;20179;-75
2023/09/29 01:12:44;;;;;;;18.27;7.45;;;;;;;;;;5052662;28;20045;-75
2023/09/29 01:15:13;;;;;;;16.30;6.97;;;;;;;;;;5053349;28;20422;-75
2023/09/29 01:17:41;;;;;;;20.10;7.38;;;;;;;;;;5053420;28;20068;-75
2023/09/29 01:20:15;;;;;;;20.30;7.95;;;;;;;;;;5052391;28;20072;-75
2023/09/29 01:22:48;;;;;;;22.52;7.50;;;;;;;;;;5051908;28;20049;-75
2023/09/29 01:25:15;;;;;;;21.30;8.05;;;;;;;;;;5053527;28;20399;-75
2023/09/29 01:27:41;;;;;;;20.55;8.02;;;;;;;;;;5053186;28;20473;-75
2023/09/29 01:30:09;;;;;;;23.00;7.88;;;;;;;;;;5051385;28;20040;-75
2023/09/29 01:32:35;;;;;;;20.73;8.02;;;;;;;;;;5051231;28;20084;-75
2023/09/29 01:35:02;;;;;;;17.25;6.90;;;;;;;;;;5051100;28;20055;-75
2023/09/29 01:37:28;;;;;;;19.27;8.23;;;;;;;;;;5052226;28;20049;-75
2023/09/29 01:39:54;;;;;;;21.20;8.15;;;;;;;;;;5049765;28;20078;-75
2023/09/29 01:42:20;;;;;;;20.75;8.52;;;;;;;;;;5048972;28;20467;-76
2023/09/29 01:44:46;;;;;;;19.00;8.05;;;;;;;;;;5051826;28;20438;-75
2023/09/29 01:47:12;;;;;;;17.02;8.13;;;;;;;;;;5050132;28;20041;-75
2023/09/29 01:49:38;;;;;;;23.52;8.35;;;;;;;;;;5051782;28;20049;-75
2023/09/29 01:52:04;;;;;;;23.58;9.10;;;;;;;;;;5048002;28;20052;-75
2023/09/29 01:54:31;;;;;;;19.98;8.73;;;;;;;;;;5049218;28;20033;-74
2023/09/29 01:56:57;;;;;;;19.98;8.73;;;;;;;;;;5051537;28;20407;-75
2023/09/29 01:59:23;;;;;;;18.48;9.48;;;;;;;;;;5051774;28;20045;-77
2023/09/29 02:01:50;;;;;;;22.70;9.45;;;;;;;;;;5053982;28;20044;-75
2023/09/29 02:04:16;;;;;;;24.63;9.65;;;;;;;;;;5055056;28;20052;-75
2023/09/29 02:06:42;;;;;;;24.88;9.63;;;;;;;;;;5054616;28;20048;-75
2023/09/29 02:09:10;;;;;;;20.77;10.00;;;;;;;;;;5056463;28;20048;-75
2023/09/29 02:11:39;;;;;;;21.67;10.23;;;;;;;;;;5054001;28;20045;-75
2023/09/29 02:14:05;;;;;;;21.67;9.73;;;;;;;;;;5054098;28;20071;-74
2023/09/29 02:16:31;;;;;;;17.58;9.50;;;;;;;;;;5055022;28;20056;-74
2023/09/29 02:18:57;;;;;;;24.30;10.60;;;;;;;;;;5056188;28;20048;-74
2023/09/29 02:21:27;;;;;;;22.83;10.68;;;;;;;;;;5050154;28;20052;-75
2023/09/29 02:23:55;;;;;;;25.50;11.18;;;;;;;;;;5055975;28;20060;-75
2023/09/29 02:26:22;;;;;;;26.27;12.23;;;;;;;;;;5055989;28;20084;-74
2023/09/29 02:28:48;;;;;;;20.33;11.80;;;;;;;;;;5055992;28;20495;-74
2023/09/29 02:31:15;;;;;;;25.65;12.60;;;;;;;;;;5053684;28;20396;-75
2023/09/29 02:33:41;;;;;;;22.95;12.30;;;;;;;;;;5054454;28;20037;-75
2023/09/29 02:36:08;;;;;;;25.65;13.05;;;;;;;;;;5055511;28;20127;-75
2023/09/29 02:38:36;;;;;;;26.17;13.95;;;;;;;;;;5055600;28;20059;-75
2023/09/29 02:41:02;;;;;;;21.80;12.77;;;;;;;;;;5055824;28;20499;-75
2023/09/29 02:43:30;;;;;;;24.20;14.10;;;;;;;;;;5055915;28;20048;-74
2023/09/29 02:45:56;;;;;;;26.55;13.70;;;;;;;;;;5053249;28;20048;-73
2023/09/29 02:48:22;;;;;;;27.10;13.63;;;;;;;;;;5053405;28;20044;-75
2023/09/29 02:50:48;;;;;;;25.00;14.23;;;;;;;;;;5054085;28;20182;-75
2023/09/29 02:53:15;;;;;;;23.10;14.68;;;;;;;;;;5051672;28;20502;-75
2023/09/29 02:55:41;;;;;;;22.60;15.00;;;;;;;;;;5055455;28;20094;-75
2023/09/29 02:58:08;;;;;;;24.92;15.00;;;;;;;;;;5053330;28;20103;-76
2023/09/29 03:00:35;;;;;;;28.67;15.63;;;;;;;;;;5053858;28;20041;-77
2023/09/29 03:03:03;;;;;;;23.08;15.18;;;;;;;;;;5051449;28;20048;-74
2023/09/29 03:05:29;;;;;;;23.77;14.43;;;;;;;;;;5054920;28;20045;-75
2023/09/29 03:07:55;;;;;;;23.65;14.50;;;;;;;;;;5051979;28;20041;-74
2023/09/29 03:10:23;;;;;;;23.35;14.88;;;;;;;;;;5052844;28;20475;-74
2023/09/29 03:12:49;;;;;;;23.38;14.43;;;;;;;;;;5053982;28;20077;-74
2023/09/29 03:15:15;;;;;;;25.83;14.32;;;;;;;;;;5036746;28;20056;-75
2023/09/29 03:17:45;;;;;;;21.92;15.80;;;;;;;;;;5055003;28;20037;-75
2023/09/29 03:20:11;;;;;;;27.73;14.43;;;;;;;;;;5053302;28;20048;-75
2023/09/29 03:22:41;;;;;;;27.00;15.45;;;;;;;;;;5052623;28;20045;-75
2023/09/29 03:25:07;;;;;;;29.50;15.00;;;;;;;;;;5051238;28;20045;-75
2023/09/29 03:27:36;;;;;;;26.58;15.90;;;;;;;;;;5054565;28;20076;-75
2023/09/29 03:30:07;;;;;;;24.48;14.35;;;;;;;;;;5053532;28;20044;-75
2023/09/29 03:32:33;;;;;;;26.20;16.27;;;;;;;;;;5053326;28;20060;-75
2023/09/29 03:35:00;;;;;;;28.20;16.02;;;;;;;;;;5052548;28;20083;-76
2023/09/29 03:37:29;;;;;;;27.15;16.15;;;;;;;;;;5053682;28;20083;-75
2023/09/29 03:39:56;;;;;;;29.45;17.83;;;;;;;;;;5053735;28;20088;-75
2023/09/29 03:42:22;;;;;;;28.10;16.90;;;;;;;;;;5050909;28;20051;-75
2023/09/29 03:44:48;;;;;;;24.73;17.35;;;;;;;;;;5054357;28;20454;-75
2023/09/29 03:47:14;;;;;;;23.80;17.15;;;;;;;;;;5051827;28;20044;-75
2023/09/29 03:49:40;;;;;;;29.08;18.08;;;;;;;;;;5053480;28;20503;-75
2023/09/29 03:52:07;;;;;;;28.80;17.77;;;;;;;;;;5063939;28;20486;-75
2023/09/29 03:54:34;;;;;;;25.80;17.30;;;;;;;;;;5054106;28;20506;-77
2023/09/29 03:57:04;;;;;;;28.58;18.58;;;;;;;;;;5050640;28;20041;-75
2023/09/29 03:59:30;;;;;;;30.10;18.70;;;;;;;;;;5052518;28;20048;-75
2023/09/29 04:01:56;;;;;;;29.27;18.00;;;;;;;;;;5053978;28;20048;-77
2023/09/29 04:04:22;;;;;;;26.83;18.48;;;;;;;;;;5051376;28;20132;-75
2023/09/29 04:06:48;;;;;;;31.70;18.92;;;;;;;;;;5053395;28;20060;-75
2023/09/29 04:09:14;;;;;;;25.88;18.77;;;;;;;;;;5054481;28;20041;-75
2023/09/29 04:11:40;;;;;;;28.10;18.55;;;;;;;;;;5053443;28;20051;-75
2023/09/29 04:14:07;;;;;;;36.53;20.67;;;;;;;;;;5053577;28;20041;-75
2023/09/29 04:16:33;;;;;;;31.90;19.40;;;;;;;;;;5053306;28;20094;-75
2023/09/29 04:18:59;;;;;;;26.42;19.33;;;;;;;;;;5052534;28;20128;-77
2023/09/29 04:21:25;;;;;;;30.42;21.25;;;;;;;;;;5054214;28;20049;-75
2023/09/29 04:23:51;;;;;;;31.55;20.20;;;;;;;;;;5053544;28;20526;-75
2023/09/29 04:26:21;;;;;;;31.73;20.30;;;;;;;;;;5053719;28;20040;-75
2023/09/29 04:28:49;;;;;;;29.55;19.40;;;;;;;;;;5053476;28;20044;-75
2023/09/29 04:31:16;;;;;;;26.10;19.15;;;;;;;;;;5053838;28;20037;-75
2023/09/29 04:33:43;;;;;;;27.92;19.85;;;;;;;;;;5053308;28;20136;-75
2023/09/29 04:36:09;;;;;;;29.55;19.88;;;;;;;;;;5053233;28;20041;-74
2023/09/29 04:38:41;;;;;;;27.52;19.02;;;;;;;;;;5051611;28;20517;-75
2023/09/29 04:41:07;;;;;;;26.65;18.98;;;;;;;;;;5051107;28;20033;-74
2023/09/29 04:43:33;;;;;;;24.98;18.70;;;;;;;;;;5052492;28;20049;-75
2023/09/29 04:46:00;;;;;;;29.00;18.58;;;;;;;;;;5053452;28;20102;-75
2023/09/29 04:48:26;;;;;;;29.17;19.40;;;;;;;;;;5053818;28;20095;-75
2023/09/29 04:50:52;;;;;;;29.67;18.75;;;;;;;;;;5052381;28;20128;-75
2023/09/29 04:53:18;;;;;;;28.05;19.23;;;;;;;;;;5053665;28;20039;-75
2023/09/29 04:55:44;;;;;;;28.30;18.73;;;;;;;;;;5048755;28;20045;-75
2023/09/29 04:58:10;;;;;;;26.27;18.48;;;;;;;;;;5050377;28;20065;-75
2023/09/29 05:00:37;;;;;;;26.13;19.10;;;;;;;;;;5051826;28;20044;-75
2023/09/29 05:03:03;;;;;;;26.88;17.80;;;;;;;;;;5052633;28;20056;-76
2023/09/29 05:05:30;;;;;;;29.92;18.85;;;;;;;;;;5052385;28;20048;-76
2023/09/29 05:07:56;;;;;;;27.80;18.27;;;;;;;;;;5052055;28;20052;-77
2023/09/29 05:10:22;;;;;;;29.92;17.60;;;;;;;;;;5051534;28;20510;-76
2023/09/29 05:12:48;;;;;;;23.67;17.25;;;;;;;;;;5052165;28;20037;-74
2023/09/29 05:15:14;;;;;;;25.30;17.65;;;;;;;;;;5052365;28;20083;-75
2023/09/29 05:17:40;;;;;;;26.77;17.02;;;;;;;;;;5049116;28;20045;-75
2023/09/29 05:20:07;;;;;;;22.98;16.80;;;;;;;;;;5050320;28;20056;-75
2023/09/29 05:22:34;;;;;;;24.23;17.75;;;;;;;;;;5051567;28;20071;-77
2023/09/29 05:25:01;;;;;;;24.05;16.30;;;;;;;;;;5052260;28;20041;-75
2023/09/29 05:27:29;;;;;;;23.90;16.85;;;;;;;;;;5039235;28;20057;-75
2023/09/29 05:29:59;;;;;;;25.67;15.70;;;;;;;;;;5041275;28;20082;-75
2023/09/29 05:32:25;;;;;;;22.60;15.07;;;;;;;;;;5042321;28;20057;-74
2023/09/29 05:34:51;;;;;;;24.83;15.60;;;;;;;;;;5042580;28;20061;-74
2023/09/29 05:37:17;;;;;;;21.55;15.50;;;;;;;;;;5042276;28;20488;-74
2023/09/29 05:39:43;;;;;;;24.40;14.65;;;;;;;;;;5048904;28;20048;-74
2023/09/29 05:42:10;;;;;;;21.75;15.18;;;;;;;;;;5047557;28;20045;-75
2023/09/29 05:44:36;;;;;;;24.17;15.80;;;;;;;;;;5050721;28;20044;-75
2023/09/29 05:47:03;;;;;;;25.00;16.02;;;;;;;;;;5048284;28;20048;-75
2023/09/29 05:49:30;;;;;;;24.08;15.00;;;;;;;;;;5051473;28;20041;-76
2023/09/29 05:51:56;;;;;;;21.65;14.98;;;;;;;;;;5050555;28;20041;-74
2023/09/29 05:54:22;;;;;;;23.30;15.10;;;;;;;;;;5052362;28;20049;-76
2023/09/29 05:56:50;;;;;;;22.67;14.00;;;;;;;;;;5049788;28;20112;-75
2023/09/29 05:59:16;;;;;;;23.20;14.02;;;;;;;;;;5049988;28;20068;-75
2023/09/29 06:01:42;;;;;;;22.27;14.88;;;;;;;;;;5054821;28;20511;-75
2023/09/29 06:04:08;;;;;;;23.10;14.10;;;;;;;;;;5062611;28;20040;-75
2023/09/29 06:06:34;;;;;;;22.00;13.60;;;;;;;;;;5047275;28;20491;-75
2023/09/29 06:09:00;;;;;;;19.38;13.75;;;;;;;;;;5049690;28;20044;-75
2023/09/29 06:11:26;;;;;;;23.02;12.77;;;;;;;;;;5050608;28;20041;-74
2023/09/29 06:13:53;;;;;;;18.65;12.63;;;;;;;;;;5040066;28;20045;-75
2023/09/29 06:16:19;;;;;;;20.70;13.35;;;;;;;;;;5049416;28;20514;-75
2023/09/29 06:18:46;;;;;;;18.20;13.18;;;;;;;;;;5049501;28;20124;-75
2023/09/29 06:21:12;;;;;;;22.05;12.77;;;;;;;;;;5050043;28;20491;-75
2023/09/29 06:23:38;;;;;;;19.80;13.13;;;;;;;;;;5049660;28;20052;-75
2023/09/29 06:26:04;;;;;;;20.73;13.25;;;;;;;;;;5050637;28;20040;-75
2023/09/29 06:28:30;;;;;;;19.30;12.80;;;;;;;;;;5049856;28;20411;-75
2023/09/29 06:30:57;;;;;;;17.70;12.70;;;;;;;;;;5050772;28;20051;-75
2023/09/29 06:33:24;;;;;;;18.77;11.18;;;;;;;;;;5050543;28;20138;-75
2023/09/29 06:35:50;;;;;;;18.33;11.52;;;;;;;;;;5050340;28;20049;-75
2023/09/29 06:38:16;;;;;;;19.70;10.40;;;;;;;;;;5035099;28;20045;-75
2023/09/29 06:40:44;;;;;;;18.27;10.43;;;;;;;;;;5049906;28;20095;-75
2023/09/29 06:43:10;;;;;;;16.70;9.43;;;;;;;;;;5050815;28;20076;-76
2023/09/29 06:45:36;;;;;;;16.60;9.27;;;;;;;;;;5046977;28;20448;-75
2023/09/29 06:48:04;;;;;;;16.67;9.65;;;;;;;;;;5045330;28;20048;-75
2023/09/29 06:50:30;;;;;;;21.27;9.20;;;;;;;;;;5041250;28;20147;-76
2023/09/29 06:52:56;;;;;;;16.88;8.98;;;;;;;;;;5049956;28;20041;-75
2023/09/29 06:55:22;;;;;;;15.63;8.25;;;;;;;;;;5044366;28;20052;-75
2023/09/29 06:57:48;;;;;;;13.15;8.68;;;;;;;;;;5051034;28;20147;-74
2023/09/29 07:00:15;;;;;;;15.77;8.65;;;;;;;;;;5039800;28;20484;-75
2023/09/29 07:02:41;;;;;;;13.15;7.45;;;;;;;;;;5052908;28;20099;-74
2023/09/29 07:05:07;;;;;;;14.38;7.38;;;;;;;;;;5070615;28;20048;-74
2023/09/29 07:07:33;;;;;;;13.50;7.28;;;;;;;;;;5054171;28;20128;-77
2023/09/29 07:10:00;;;;;;;14.18;6.45;;;;;;;;;;5054291;28;20049;-74
2023/09/29 07:12:26;;;;;;;12.70;6.80;;;;;;;;;;5051400;28;20071;-75
2023/09/29 07:14:52;;;;;;;11.77;6.80;;;;;;;;;;5051115;28;20479;-75
2023/09/29 07:17:18;;;;;;;11.90;6.60;;;;;;;;;;5054387;28;20041;-75
2023/09/29 07:19:46;;;;;;;12.75;6.05;;;;;;;;;;5052572;28;20124;-75
2023/09/29 07:22:12;;;;;;;9.27;5.90;;;;;;;;;;5054192;28;20102;-75
2023/09/29 07:24:41;;;;;;;12.57;6.10;;;;;;;;;;5044956;28;20118;-75
2023/09/29 07:27:08;;;;;;;10.27;5.75;;;;;;;;;;5054776;28;20059;-75
2023/09/29 07:29:35;;;;;;;12.70;6.43;;;;;;;;;;5054692;28;21031;-76
2023/09/29 07:32:00;;;;;;;15.68;6.25;;;;;;;;;;5054401;28;20057;-75
2023/09/29 07:34:29;;;;;;;11.48;6.07;;;;;;;;;;5053401;28;20415;-75
2023/09/29 07:36:55;;;;;;;9.95;6.07;;;;;;;;;;5057653;28;20201;-75
2023/09/29 07:39:21;;;;;;;12.73;5.63;;;;;;;;;;5048410;28;20069;-77
2023/09/29 07:41:48;;;;;;;10.98;5.63;;;;;;;;;;5054265;28;20475;-76
2023/09/29 07:44:14;;;;;;;10.52;5.47;;;;;;;;;;5046608;28;20045;-76
2023/09/29 07:46:40;;;;;;;11.45;5.55;;;;;;;;;;5052498;28;20602;-76
2023/09/29 07:49:06;;;;;;;10.30;5.22;;;;;;;;;;5039917;28;20051;-75
2023/09/29 07:51:32;;;;;;;11.52;5.70;;;;;;;;;;5050355;28;20047;-75
2023/09/29 07:53:59;;;;;;;10.98;5.25;;;;;;;;;;5050130;28;20049;-76
2023/09/29 07:56:25;;;;;;;10.00;5.22;;;;;;;;;;5052441;28;20037;-76
2023/09/29 07:58:52;;;;;;;10.88;5.22;;;;;;;;;;5049352;28;20048;-76
2023/09/29 08:01:18;;;;;;;10.65;5.53;;;;;;;;;;5057728;28;20083;-76
2023/09/29 08:03:44;;;;;;;11.85;4.97;;;;;;;;;;5059915;28;20036;-76
2023/09/29 08:06:10;;;;;;;10.93;4.78;;;;;;;;;;5052653;28;20041;-76
2023/09/29 08:08:36;;;;;;;12.15;4.88;;;;;;;;;;5048257;28;20048;-74
2023/09/29 08:11:02;;;;;;;10.85;5.53;;;;;;;;;;5039333;28;20140;-76
2023/09/29 08:13:29;;;;;;;10.63;5.30;;;;;;;;;;5056745;28;20049;-77
2023/09/29 08:15:55;;;;;;;11.20;5.22;;;;;;;;;;5051656;28;20102;-75
2023/09/29 08:18:21;;;;;;;9.55;4.60;;;;;;;;;;5050355;28;20052;-76
2023/09/29 08:20:52;;;;;;;9.27;4.57;;;;;;;;;;5050636;28;20067;-76
2023/09/29 08:23:18;;;;;;;9.05;4.93;;;;;;;;;;5060208;28;20141;-76
2023/09/29 08:25:45;;;;;;;9.52;5.00;;;;;;;;;;5072356;28;20052;-76
2023/09/29 08:28:13;;;;;;;14.45;5.05;;;;;;;;;;5062064;28;20060;-76
2023/09/29 08:30:39;;;;;;;8.80;4.68;;;;;;;;;;5050874;28;20725;-76
2023/09/29 08:33:06;;;;;;;13.18;5.15;;;;;;;;;;5052168;28;20494;-76
2023/09/29 08:35:32;;;;;;;10.00;4.68;;;;;;;;;;5062337;28;20044;-76
2023/09/29 08:37:58;;;;;;;10.07;5.13;;;;;;;;;;5051493;28;20407;-75
2023/09/29 08:40:25;;;;;;;9.52;4.72;;;;;;;;;;5051766;28;20050;-76
2023/09/29 08:42:51;;;;;;;10.50;4.50;;;;;;;;;;5052641;28;20521;-76
2023/09/29 08:45:18;;;;;;;10.55;4.60;;;;;;;;;;5039372;28;20380;-76
2023/09/29 08:47:51;;;;;;;9.68;4.50;;;;;;;;;;5051799;28;20882;-76
2023/09/29 08:50:17;;;;;;;9.77;4.45;;;;;;;;;;5052221;28;20052;-76
2023/09/29 08:52:49;;;;;;;9.27;4.32;;;;;;;;;;5052568;28;20262;-77
2023/09/29 08:55:16;;;;;;;10.02;4.57;;;;;;;;;;5048723;28;20125;-75
2023/09/29 08:57:43;;;;;;;10.65;4.60;;;;;;;;;;5051850;28;20052;-75
2023/09/29 09:00:13;;;;;;;10.63;4.45;;;;;;;;;;5052675;28;20056;-75
2023/09/29 09:02:43;;;;;;;9.15;4.38;;;;;;;;;;5050436;28;20033;-76
2023/09/29 09:05:14;;;;;;;8.95;3.90;;;;;;;;;;5039397;28;20053;-75
2023/09/29 09:07:41;;;;;;;9.43;4.10;;;;;;;;;;5054750;28;20166;-74
2023/09/29 09:10:08;;;;;;;9.23;3.90;;;;;;;;;;5051212;28;20049;-75
2023/09/29 09:12:36;;;;;;;10.70;3.55;;;;;;;;;;5052828;28;20463;-79
2023/09/29 09:15:03;;;;;;;12.13;3.92;;;;;;;;;;5047717;28;20049;-75
2023/09/29 09:17:29;;;;;;;9.65;3.60;;;;;;;;;;5050832;28;20135;-76
2023/09/29 09:19:55;;;;;;;14.35;4.15;;;;;;;;;;5056253;28;20037;-74
2023/09/29 09:22:24;;;;;;;10.07;3.60;;;;;;;;;;5051027;28;20049;-75
2023/09/29 09:24:51;;;;;;;11.73;4.40;;;;;;;;;;5049703;28;20055;-75
2023/09/29 09:27:18;;;;;;;9.77;3.10;;;;;;;;;;5051978;28;20072;-76
2023/09/29 09:29:44;;;;;;;11.95;3.60;;;;;;;;;;5055385;28;20040;-74
2023/09/29 09:32:11;;;;;;;10.10;3.10;;;;;;;;;;5041418;28;20131;-77
2023/09/29 09:34:37;;;;;;;7.68;3.50;;;;;;;;;;5040941;28;20488;-79
2023/09/29 09:37:05;;;;;;;7.43;3.20;;;;;;;;;;5046622;28;20087;-74
2023/09/29 09:39:33;;;;;;;7.43;3.35;;;;;;;;;;5051210;28;20099;-75
2023/09/29 09:41:59;;;;;;;7.13;3.20;;;;;;;;;;5045421;28;20565;-75
2023/09/29 09:44:26;;;;;;;8.07;3.20;;;;;;;;;;5054857;28;20403;-73
2023/09/29 09:47:00;;;;;;;7.10;2.70;;;;;;;;;;5040155;28;20052;-74
2023/09/29 09:49:30;;;;;;;8.27;3.38;;;;;;;;;;5038740;28;20044;-75
2023/09/29 09:52:00;;;;;;;8.05;3.20;;;;;;;;;;5051661;28;20470;-75
2023/09/29 09:54:29;;;;;;;7.18;2.83;;;;;;;;;;5054043;28;20056;-75
2023/09/29 09:57:01;;;;;;;9.60;3.13;;;;;;;;;;5044663;28;20045;-75
2023/09/29 09:59:28;;;;;;;8.70;2.80;;;;;;;;;;5043692;28;20110;-74
2023/09/29 10:01:55;;;;;;;7.75;3.33;;;;;;;;;;5041119;28;20053;-75
2023/09/29 10:04:24;;;;;;;10.35;3.20;;;;;;;;;;5054803;28;20094;-76
2023/09/29 10:06:51;;;;;;;9.15;3.03;;;;;;;;;;5039587;28;20160;-74
2023/09/29 10:09:17;;;;;;;7.35;2.88;;;;;;;;;;5054677;28;20045;-75
2023/09/29 10:11:44;;;;;;;7.45;2.70;;;;;;;;;;5051980;28;20491;-76
2023/09/29 10:14:10;;;;;;;7.70;3.35;;;;;;;;;;5051645;28;20119;-74
2023/09/29 10:16:38;;;;;;;8.63;3.05;;;;;;;;;;5050043;28;20080;-75
2023/09/29 10:19:12;;;;;;;9.70;3.30;;;;;;;;;;5057660;28;20491;-76
2023/09/29 10:21:42;;;;;;;8.40;2.95;;;;;;;;;;5055862;28;20499;-75
2023/09/29 10:24:13;;;;;;;6.27;2.63;;;;;;;;;;5050816;28;20045;-76
2023/09/29 10:26:48;;;;;;;6.88;3.03;;;;;;;;;;5054516;28;20312;-74
2023/09/29 10:29:18;;;;;;;7.47;2.88;;;;;;;;;;5038204;28;20048;-74
2023/09/29 10:31:45;;;;;;;9.43;2.60;;;;;;;;;;5056580;28;20045;-75
2023/09/29 10:34:19;;;;;;;7.53;2.90;;;;;;;;;;5057048;28;20068;-73
2023/09/29 10:36:45;;;;;;;8.38;3.03;;;;;;;;;;5055332;28;20060;-74
2023/09/29 10:39:11;;;;;;;6.80;3.15;;;;;;;;;;5057277;28;20057;-74
2023/09/29 10:41:37;;;;;;;7.82;3.40;;;;;;;;;;5056784;28;20068;-74
2023/09/29 10:44:05;;;;;;;8.32;2.95;;;;;;;;;;5050896;28;20072;-76
2023/09/29 10:46:31;;;;;;;7.93;3.53;;;;;;;;;;5056117;28;20049;-74
2023/09/29 10:48:58;;;;;;;7.57;2.97;;;;;;;;;;5056971;28;20049;-75
2023/09/29 10:51:25;;;;;;;6.93;3.05;;;;;;;;;;5036934;28;20045;-74
2023/09/29 10:53:52;;;;;;;7.25;3.45;;;;;;;;;;5055277;28;20072;-74
2023/09/29 10:56:22;;;;;;;7.18;3.08;;;;;;;;;;5055962;28;20056;-74
2023/09/29 10:58:52;;;;;;;9.48;3.75;;;;;;;;;;5054997;28;20041;-75
2023/09/29 11:01:19;;;;;;;8.90;3.17;;;;;;;;;;5050327;28;20110;-75
2023/09/29 11:03:45;;;;;;;6.88;2.80;;;;;;;;;;5057022;28;20047;-75
2023/09/29 11:06:16;;;;;;;7.20;3.50;;;;;;;;;;5039303;28;20041;-75
2023/09/29 11:08:45;;;;;;;8.15;3.10;;;;;;;;;;5036224;28;20048;-76
2023/09/29 11:11:11;;;;;;;8.55;3.90;;;;;;;;;;5041755;28;20144;-74
2023/09/29 11:13:40;;;;;;;9.15;3.20;;;;;;;;;;5053414;28;20051;-74
2023/09/29 11:16:16;;;;;;;8.65;3.42;;;;;;;;;;5055503;28;20045;-74
2023/09/29 11:18:45;;;;;;;7.63;3.33;;;;;;;;;;5054080;28;20135;-75
2023/09/29 11:21:12;;;;;;;13.65;3.45;;;;;;;;;;5053362;28;20069;-75
2023/09/29 11:23:44;;;;;;;7.75;3.08;;;;;;;;;;5041870;28;20118;-75
2023/09/29 11:26:10;;;;;;;8.27;3.35;;;;;;;;;;5047187;28;20440;-75
2023/09/29 11:28:43;;;;;;;9.27;3.17;;;;;;;;;;5048021;28;20496;-75
2023/09/29 11:31:12;;;;;;;8.73;3.20;;;;;;;;;;5051658;28;20092;-75
2023/09/29 11:33:39;;;;;;;8.70;3.70;;;;;;;;;;5051196;28;20085;-76
2023/09/29 11:36:15;;;;;;;7.95;3.00;;;;;;;;;;5053605;28;20063;-75
2023/09/29 11:38:41;;;;;;;7.60;3.28;;;;;;;;;;5054755;28;20049;-74
2023/09/29 11:41:07;;;;;;;7.93;3.67;;;;;;;;;;5054451;28;20057;-74
2023/09/29 11:43:34;;;;;;;7.70;3.47;;;;;;;;;;5053082;28;20094;-74
2023/09/29 11:46:00;;;;;;;10.88;3.25;;;;;;;;;;5053256;28;20518;-74
2023/09/29 11:48:26;;;;;;;9.18;3.28;;;;;;;;;;5055786;28;20411;-74
2023/09/29 11:50:53;;;;;;;10.15;3.53;;;;;;;;;;5056451;28;20094;-74
2023/09/29 11:53:19;;;;;;;6.90;3.85;;;;;;;;;;5056265;28;20045;-74
2023/09/29 11:55:45;;;;;;;7.20;3.60;;;;;;;;;;5052659;28;20044;-73
2023/09/29 11:58:11;;;;;;;9.55;3.78;;;;;;;;;;5043251;28;20137;-73
2023/09/29 12:00:41;;;;;;;10.25;4.13;;;;;;;;;;5041719;28;20092;-76
2023/09/29 12:03:07;;;;;;;7.25;3.50;;;;;;;;;;5053946;28;20045;-75
2023/09/29 12:05:33;;;;;;;9.80;4.25;;;;;;;;;;5046408;28;20355;-72
2023/09/29 12:08:00;;;;;;;10.50;4.10;;;;;;;;;;5050943;28;20632;-72
2023/09/29 12:10:28;;;;;;;10.05;4.38;;;;;;;;;;5053285;28;20044;-73
2023/09/29 12:12:54;;;;;;;10.23;4.80;;;;;;;;;;5047497;28;20064;-72
2023/09/29 12:15:21;;;;;;;8.40;4.68;;;;;;;;;;5050717;28;20120;-72
2023/09/29 12:17:47;;;;;;;8.60;4.57;;;;;;;;;;5052561;28;20523;-73
2023/09/29 12:20:16;;;;;;;7.97;4.43;;;;;;;;;;5053318;28;20045;-76
2023/09/29 12:22:46;;;;;;;8.20;4.45;;;;;;;;;;5052252;28;20077;-74
2023/09/29 12:25:15;;;;;;;8.48;4.40;;;;;;;;;;5037574;28;20049;-75
2023/09/29 12:27:42;;;;;;;10.15;4.45;;;;;;;;;;5036205;28;20060;-76
2023/09/29 12:30:12;;;;;;;9.55;4.82;;;;;;;;;;5051143;28;20040;-73
2023/09/29 12:32:38;;;;;;;10.80;4.55;;;;;;;;;;5046911;28;20348;-75
2023/09/29 12:35:05;;;;;;;8.98;4.60;;;;;;;;;;5050598;28;20053;-75
2023/09/29 12:37:31;;;;;;;9.82;4.88;;;;;;;;;;5050888;28;20622;-73
2023/09/29 12:39:57;;;;;;;11.15;4.50;;;;;;;;;;5052050;28;20055;-76
2023/09/29 12:42:23;;;;;;;9.27;4.57;;;;;;;;;;5048344;28;20466;-75
2023/09/29 12:44:49;;;;;;;10.93;4.65;;;;;;;;;;5039845;28;20049;-77
2023/09/29 12:47:15;;;;;;;11.10;4.43;;;;;;;;;;5047753;28;20486;-75
2023/09/29 12:49:42;;;;;;;10.90;4.93;;;;;;;;;;5033111;28;20041;-77
2023/09/29 12:52:08;;;;;;;8.38;4.00;;;;;;;;;;5033197;28;20111;-75
2023/09/29 12:54:36;;;;;;;11.00;4.22;;;;;;;;;;5043577;28;20045;-75
2023/09/29 12:57:02;;;;;;;9.80;4.40;;;;;;;;;;5036689;28;20115;-75
2023/09/29 12:59:29;;;;;;;8.98;4.10;;;;;;;;;;5044800;28;20132;-75
2023/09/29 13:01:55;;;;;;;9.60;4.38;;;;;;;;;;5050580;28;20056;-77
2023/09/29 13:04:25;;;;;;;11.88;4.80;;;;;;;;;;5053355;28;20055;-76
2023/09/29 13:06:52;;;;;;;11.82;5.00;;;;;;;;;;5041992;28;20050;-73
2023/09/29 13:09:18;;;;;;;10.13;4.80;;;;;;;;;;5051815;28;20041;-73
2023/09/29 13:11:48;;;;;;;10.00;4.65;;;;;;;;;;5053440;28;20044;-79
2023/09/29 13:14:14;;;;;;;15.15;4.63;;;;;;;;;;5052893;28;20036;-76
2023/09/29 13:16:41;;;;;;;13.02;3.60;;;;;;;;;;5050557;28;20063;-76
2023/09/29 13:19:07;;;;;;;6.78;3.13;;;;;;;;;;5050088;28;20435;-76
2023/09/29 13:21:33;;;;;;;10.50;4.03;;;;;;;;;;5040429;28;20408;-75
2023/09/29 13:24:03;;;;;;;10.48;4.63;;;;;;;;;;5038489;28;20049;-78
2023/09/29 13:26:29;;;;;;;8.18;4.85;;;;;;;;;;5032839;28;20056;-76
2023/09/29 13:28:55;;;;;;;9.95;4.93;;;;;;;;;;5043443;28;20048;-77
2023/09/29 13:31:21;;;;;;;8.27;4.82;;;;;;;;;;5053201;28;20053;-76
2023/09/29 13:33:50;;;;;;;9.35;5.30;;;;;;;;;;5050849;28;20056;-76
2023/09/29 13:36:17;;;;;;;7.28;3.05;;;;;;;;;;5049823;28;20056;-76
2023/09/29 13:38:43;;;;;;;4.13;1.20;;;;;;;;;;5048449;28;20487;-75
2023/09/29 13:41:10;;;;;;;3.25;0.85;;;;;;;;;;5051403;28;20116;-75
2023/09/29 13:43:37;;;;;;;2.10;0.65;;;;;;;;;;5051804;28;20056;-76
2023/09/29 13:46:05;;;;;;;3.70;1.50;;;;;;;;;;5050550;28;20124;-76
2023/09/29 13:48:31;;;;;;;1.95;0.50;;;;;;;;;;5048987;28;20402;-76
2023/09/29 13:50:58;;;;;;;3.60;0.60;;;;;;;;;;5051055;28;20574;-75
2023/09/29 13:53:24;;;;;;;2.47;0.57;;;;;;;;;;5055122;28;20380;-76
2023/09/29 13:55:51;;;;;;;2.92;0.70;;;;;;;;;;5056450;28;20053;-76
2023/09/29 13:58:17;;;;;;;2.78;0.68;;;;;;;;;;5055666;28;20041;-75
2023/09/29 14:00:44;;;;;;;3.88;0.70;;;;;;;;;;5056133;28;20132;-76
2023/09/29 14:03:10;;;;;;;3.88;0.57;;;;;;;;;;5053630;28;20048;-75
2023/09/29 14:05:39;;;;;;;3.67;0.85;;;;;;;;;;5054573;28;20045;-75
2023/09/29 14:08:06;;;;;;;3.22;0.70;;;;;;;;;;5055442;28;20057;-76
2023/09/29 14:10:32;;;;;;;2.70;0.77;;;;;;;;;;5055571;28;20055;-77
2023/09/29 14:12:58;;;;;;;2.80;0.52;;;;;;;;;;5056115;28;20051;-76
2023/09/29 14:15:24;;;;;;;1.90;0.52;;;;;;;;;;5055763;28;20115;-76
2023/09/29 14:17:51;;;;;;;3.47;0.73;;;;;;;;;;5056201;28;20399;-76
2023/09/29 14:20:17;;;;;;;6.63;0.82;;;;;;;;;;5056404;28;20467;-76
2023/09/29 14:22:43;;;;;;;3.08;0.60;;;;;;;;;;5054453;28;20045;-76
2023/09/29 14:25:09;;;;;;;6.82;1.48;;;;;;;;;;5055649;28;20052;-76
2023/09/29 14:27:35;;;;;;;4.95;0.88;;;;;;;;;;5051626;28;20496;-76
2023/09/29 14:30:02;;;;;;;4.45;0.77;;;;;;;;;;5053557;28;20067;-76
2023/09/29 14:32:28;;;;;;;3.58;0.60;;;;;;;;;;5053903;28;20193;-76